Mountain Rest, SC (29664)

10:01 AM EST on December 22, 2014 (GMT -0500)
Long Creek Woods | Change Station
CLOSE
Current Station
Personal Weather Station
Location: Long Creek, SC
Elevation: 1674 ft
Nearby Weather Stations

Elev 1674 ft 34.75 °N, 83.28 °W | Updated 1 second ago

Fog
Fog
42.1 °F
Feels Like 42 °F
N
0.0
Wind Variable Wind from NE
Gusts 0.0 mph

Today
High -- | Low -- °F
--% Chance of Precip.
Yesterday
High -- | Low -- °F
Precip. -- in
7:37 AM 5:26 PM
New Moon, 0% visible
Pressure 30.09 in
Visibility 2.5 miles
Clouds Overcast 400 ft
Windchill 42 °F
Dew Point 36 °F
Humidity 78%
Rainfall 0.04 in
Snow Depth Not available.
UV 0 out of 12
Pollen .30 out of 12
Air Quality Not available.
Flu Activity Not available.
METAR KTOC 221435Z AUTO 07007KT 2 1/2SM BR OVC004 06/06 A3009 RMK AO2 T00640061

More Conditions Fewer Conditions

Pressure 30.09 in
Visibility 2.5 miles
Clouds Overcast 400 ft
Windchill 42 °F
Dew Point 36 °F
Humidity 78%
Rainfall 0.04 in
Snow Depth Not available.
UV 0 out of 12
Pollen .30 out of 12
Air Quality Not available.
Flu Activity Not available.
METAR KTOC 221435Z AUTO 07007KT 2 1/2SM BR OVC004 06/06 A3009 RMK AO2 T00640061

More Conditions Fewer Conditions

10-Day Weather Forecast

Almanac

Astronomy

Dec. 22, 2014 Rise Set
Actual Time
Civil Twilight
Nautical Twilight
Astronomical Twilight
Moon
Length of Visible Light
Length of Day
Tomorrow will be .
, % of the Moon is Illuminated

Today's Extremes

State Highs State Lows

Community

WunderPhotos

Upload Photos

1,779,610 photos uploaded!

WunderBlogs® & News

Nearby

Air Quality

  Air Quality AQ Index Pollutant
Not available.

Snow Depth

Station Depth Elevation

Earthquake Activity

City Distance Mag. Time & Date
Minimum magnitude displayed is 2.5.

Coastal Water Temperatures

Place Temperature

Nearby Weather Stations